Terminal Aerodrome Forecast
Issued by NWS Cleveland, OH

Home | Current Version | Previous Version | Graphics & Text | Print | Product List | Glossary On
Versions: 1 2 3 4 5 6 7 8 9 10 11 12 13 14 15 16 17
000
FTUS41 KCLE 270500
TAFMFD
TAF
KMFD 270527Z 2706/2806 30005KT 5SM BR BKN006 OVC030
      TEMPO 2709/2712 5SM -SHSN
     FM271400 32008KT P6SM OVC020
     FM271800 28008KT P6SM BKN035
     FM272100 29008KT P6SM OVC020
      TEMPO 2721/2801 3SM -SHSN=

USA.gov is the U.S. government's official web portal to all federal, state and local government web resources and services.